createdAt,value
2022-08-12T00:01:10.964Z,19.50
2022-08-12T00:03:57.025Z,19.50
2022-08-12T00:06:44.069Z,19.40
2022-08-12T00:09:32.139Z,19.40
2022-08-12T00:12:18.188Z,19.30
2022-08-12T00:15:03.938Z,19.20
2022-08-12T00:17:50.432Z,19.20
2022-08-12T00:20:36.562Z,19.10
2022-08-12T00:23:22.853Z,19.00
2022-08-12T00:26:22.320Z,19.00
2022-08-12T00:29:11.369Z,19.00
2022-08-12T00:31:57.519Z,18.90
2022-08-12T00:34:43.504Z,18.90
2022-08-12T00:37:29.656Z,18.80
2022-08-12T00:40:16.212Z,18.80
2022-08-12T00:42:48.525Z,18.80
2022-08-12T00:45:17.001Z,18.70
2022-08-12T00:47:45.858Z,18.70
2022-08-12T00:50:18.493Z,18.70
2022-08-12T00:52:47.649Z,18.70
2022-08-12T00:55:19.774Z,18.70
2022-08-12T00:57:52.078Z,18.70
2022-08-12T01:00:23.018Z,18.60
2022-08-12T01:02:53.198Z,18.60
2022-08-12T01:05:40.888Z,18.60
2022-08-12T01:08:28.260Z,18.50
2022-08-12T01:11:15.594Z,18.50
2022-08-12T01:13:48.896Z,18.50
2022-08-12T01:16:22.922Z,18.50
2022-08-12T01:18:52.858Z,18.40
2022-08-12T01:21:45.354Z,18.40
2022-08-12T01:24:34.100Z,18.40
2022-08-12T01:27:07.492Z,18.30
2022-08-12T01:29:45.025Z,18.30
2022-08-12T01:32:16.249Z,18.30
2022-08-12T01:34:51.775Z,18.30
2022-08-12T01:37:23.472Z,18.20
2022-08-12T01:40:34.371Z,18.00
2022-08-12T01:42:47.001Z,18.00
2022-08-12T01:45:18.279Z,17.90
2022-08-12T01:48:05.307Z,17.90
2022-08-12T01:50:43.197Z,17.90
2022-08-12T01:53:16.255Z,17.90
2022-08-12T01:55:49.331Z,17.90
2022-08-12T01:58:27.264Z,18.00
2022-08-12T02:00:59.515Z,17.90
2022-08-12T02:04:05.346Z,17.90
2022-08-12T02:07:00.961Z,17.90
2022-08-12T02:10:03.291Z,17.90
2022-08-12T02:12:48.476Z,17.90
2022-08-12T02:15:28.650Z,18.00
2022-08-12T02:18:06.133Z,18.00
2022-08-12T02:20:51.969Z,18.10
2022-08-12T02:23:27.191Z,18.10
2022-08-12T02:26:00.111Z,18.10
2022-08-12T02:28:30.949Z,18.20
2022-08-12T02:31:05.240Z,18.20
2022-08-12T02:33:34.479Z,18.20
2022-08-12T02:36:03.642Z,18.10
2022-08-12T02:38:33.281Z,18.20
2022-08-12T02:41:06.171Z,18.20
2022-08-12T02:43:41.672Z,18.10
2022-08-12T02:46:15.083Z,18.10
2022-08-12T02:48:49.142Z,18.10
2022-08-12T02:51:20.760Z,18.10
2022-08-12T02:54:02.958Z,18.10
2022-08-12T02:56:34.283Z,18.00
2022-08-12T02:59:04.648Z,18.00
2022-08-12T03:01:35.720Z,18.00
2022-08-12T03:04:24.591Z,17.90
2022-08-12T03:07:03.176Z,17.90
2022-08-12T03:09:50.710Z,17.90
2022-08-12T03:12:26.648Z,17.80
2022-08-12T03:15:09.987Z,17.80
2022-08-12T03:18:27.629Z,17.70
2022-08-12T03:20:41.034Z,17.70
2022-08-12T03:23:19.456Z,17.70
2022-08-12T03:25:58.944Z,17.70
2022-08-12T03:28:46.643Z,17.70
2022-08-12T03:31:16.838Z,17.60
2022-08-12T03:34:00.511Z,17.70
2022-08-12T03:36:31.395Z,17.60
2022-08-12T03:42:02.765Z,17.50
2022-08-12T03:44:53.777Z,17.50
2022-08-12T03:47:47.737Z,17.40
2022-08-12T03:50:33.766Z,17.40
2022-08-12T03:53:20.555Z,17.40
2022-08-12T03:56:06.265Z,17.30
2022-08-12T03:58:54.060Z,17.30
2022-08-12T04:01:23.613Z,17.30
2022-08-12T04:03:55.345Z,17.20
2022-08-12T04:06:35.048Z,17.20
2022-08-12T04:09:16.251Z,17.20
2022-08-12T04:12:04.624Z,17.20
2022-08-12T04:14:35.057Z,17.20
2022-08-12T04:17:04.779Z,17.20
2022-08-12T04:19:33.279Z,17.20
2022-08-12T04:22:03.721Z,17.20
2022-08-12T04:24:35.377Z,17.20
2022-08-12T04:27:06.362Z,17.10
2022-08-12T04:30:29.654Z,17.10
2022-08-12T04:32:26.097Z,17.20
2022-08-12T04:34:55.329Z,17.10
2022-08-12T04:37:24.487Z,17.10
2022-08-12T04:39:54.467Z,17.10
2022-08-12T04:42:23.934Z,17.10
2022-08-12T04:44:54.041Z,17.10
2022-08-12T04:47:24.440Z,17.10
2022-08-12T04:49:53.009Z,17.10
2022-08-12T04:52:21.807Z,17.10
2022-08-12T04:54:50.837Z,17.20
2022-08-12T04:57:19.266Z,17.20
2022-08-12T04:59:49.030Z,17.20
2022-08-12T05:02:22.645Z,17.30
2022-08-12T05:04:52.807Z,17.30
2022-08-12T05:07:24.331Z,17.40
2022-08-12T05:09:55.335Z,17.40
2022-08-12T05:12:38.931Z,17.50
2022-08-12T05:15:19.258Z,17.50
2022-08-12T05:17:59.888Z,17.60
2022-08-12T05:20:30.981Z,17.60
2022-08-12T05:23:12.940Z,17.70
2022-08-12T05:25:43.367Z,17.80
2022-08-12T05:28:13.855Z,17.90
2022-08-12T05:30:42.943Z,18.00
2022-08-12T05:33:15.680Z,18.00
2022-08-12T05:35:47.708Z,18.10
2022-08-12T05:38:34.737Z,18.20
2022-08-12T05:41:05.415Z,18.20
2022-08-12T05:43:34.944Z,18.30
2022-08-12T05:46:03.378Z,18.40
2022-08-12T05:48:33.210Z,18.50
2022-08-12T05:51:01.666Z,18.50
2022-08-12T05:53:30.102Z,18.60
2022-08-12T05:55:58.580Z,18.70
2022-08-12T05:58:27.312Z,18.80
2022-08-12T06:00:56.993Z,18.90
2022-08-12T06:03:25.634Z,19.00
2022-08-12T06:05:57.176Z,19.10
2022-08-12T06:08:27.503Z,19.10
2022-08-12T06:10:57.446Z,19.20
2022-08-12T06:13:52.883Z,19.30
2022-08-12T06:16:16.348Z,19.40
2022-08-12T06:18:45.586Z,19.50
2022-08-12T06:21:21.455Z,19.60
2022-08-12T06:23:50.354Z,19.70
2022-08-12T06:26:20.445Z,19.80
2022-08-12T06:28:50.931Z,19.90
2022-08-12T06:31:27.961Z,20.00
2022-08-12T06:35:21.665Z,20.10
2022-08-12T06:36:47.025Z,20.20
2022-08-12T06:39:17.977Z,20.30
2022-08-12T06:42:32.245Z,20.40
2022-08-12T06:44:52.592Z,20.50
2022-08-12T06:47:22.261Z,20.60
2022-08-12T06:49:52.639Z,20.70
2022-08-12T06:52:25.173Z,20.80
2022-08-12T06:54:55.438Z,20.90
2022-08-12T06:58:01.976Z,21.00
2022-08-12T07:00:17.323Z,21.10
2022-08-12T07:02:46.774Z,21.20
2022-08-12T07:05:15.210Z,21.30
2022-08-12T07:07:48.028Z,21.40
2022-08-12T07:10:18.084Z,21.50
2022-08-12T07:12:46.759Z,21.50
2022-08-12T07:15:15.443Z,21.60
2022-08-12T07:17:43.889Z,21.70
2022-08-12T07:20:42.582Z,21.80
2022-08-12T07:23:07.292Z,21.90
2022-08-12T07:25:40.312Z,22.00
2022-08-12T07:28:16.350Z,22.00
2022-08-12T07:30:46.777Z,22.10
2022-08-12T07:33:16.890Z,22.20
2022-08-12T07:35:48.438Z,22.30
2022-08-12T07:38:29.366Z,22.40
2022-08-12T07:41:03.214Z,22.40
2022-08-12T07:43:33.569Z,22.50
2022-08-12T07:46:02.605Z,22.60
2022-08-12T07:48:38.076Z,22.70
2022-08-12T07:51:07.144Z,22.80
2022-08-12T07:53:54.831Z,22.90
2022-08-12T07:56:27.864Z,23.00
2022-08-12T07:58:59.511Z,23.10
2022-08-12T08:01:28.823Z,23.20
2022-08-12T08:04:18.954Z,23.30
2022-08-12T08:06:48.972Z,23.50
2022-08-12T08:09:21.330Z,23.60
2022-08-12T08:12:07.996Z,23.70
2022-08-12T08:14:37.042Z,23.80
2022-08-12T08:17:06.652Z,24.00
2022-08-12T08:20:00.250Z,24.10
2022-08-12T08:22:40.434Z,24.20
2022-08-12T08:25:35.223Z,24.30
2022-08-12T08:28:04.321Z,24.50
2022-08-12T08:30:34.317Z,24.60
2022-08-12T08:33:02.826Z,24.70
2022-08-12T08:35:48.468Z,24.80
2022-08-12T08:38:31.830Z,25.00
2022-08-12T08:42:14.031Z,25.10
2022-08-12T08:44:11.262Z,25.10
2022-08-12T08:46:40.415Z,25.30
2022-08-12T08:49:09.209Z,25.30
2022-08-12T08:51:39.054Z,25.40
2022-08-12T08:54:08.715Z,25.50
2022-08-12T08:56:45.420Z,25.60
2022-08-12T08:59:14.862Z,25.70
2022-08-12T09:01:44.179Z,25.70
2022-08-12T09:05:07.545Z,25.80
2022-08-12T09:07:17.713Z,25.90
2022-08-12T09:10:02.299Z,26.00
2022-08-12T09:15:41.609Z,26.10
2022-08-12T09:18:11.239Z,26.20
2022-08-12T09:20:42.403Z,26.30
2022-08-12T09:23:59.027Z,26.50
2022-08-12T09:26:04.085Z,26.60
2022-08-12T09:28:54.023Z,26.80
2022-08-12T09:32:05.947Z,26.90
2022-08-12T09:34:29.456Z,27.00
2022-08-12T09:37:18.894Z,27.10
2022-08-12T09:40:02.372Z,27.20
2022-08-12T09:43:15.074Z,27.30
2022-08-12T09:46:11.902Z,27.30
2022-08-12T09:48:39.214Z,27.40
2022-08-12T09:51:11.005Z,27.50
2022-08-12T09:54:09.060Z,27.70
2022-08-12T09:57:00.177Z,27.80
2022-08-12T10:00:15.532Z,27.90
2022-08-12T10:02:42.035Z,28.10
2022-08-12T10:05:13.764Z,28.20
2022-08-12T10:07:46.176Z,28.40
2022-08-12T10:10:24.005Z,28.50
2022-08-12T10:13:34.902Z,28.60
2022-08-12T10:16:06.359Z,28.70
2022-08-12T10:18:52.381Z,28.80
2022-08-12T10:21:23.619Z,28.80
2022-08-12T10:23:55.079Z,28.90
2022-08-12T10:26:45.716Z,29.00
2022-08-12T10:30:38.974Z,29.10
2022-08-12T10:32:44.945Z,29.30
2022-08-12T10:35:15.767Z,29.50
2022-08-12T10:38:33.551Z,29.60
2022-08-12T10:40:54.779Z,29.80
2022-08-12T10:43:55.157Z,30.00
2022-08-12T10:46:31.411Z,30.10
2022-08-12T10:49:06.674Z,30.10
2022-08-12T10:52:32.521Z,30.20
2022-08-12T10:54:41.401Z,30.40
2022-08-12T10:57:18.361Z,30.50
2022-08-12T11:00:35.885Z,30.60
2022-08-12T11:04:20.845Z,30.70
2022-08-12T11:07:08.844Z,30.80
2022-08-12T11:08:42.789Z,31.10
2022-08-12T11:11:16.876Z,31.80
2022-08-12T11:13:48.886Z,32.80
2022-08-12T11:16:21.934Z,33.80
2022-08-12T11:18:55.583Z,34.80
2022-08-12T11:21:39.603Z,35.80
2022-08-12T11:24:30.168Z,36.70
2022-08-12T11:27:00.750Z,37.60
2022-08-12T11:30:06.127Z,38.30
2022-08-12T11:32:20.837Z,39.00
2022-08-12T11:34:52.705Z,39.70
2022-08-12T11:37:26.426Z,40.30
2022-08-12T11:42:37.283Z,41.00
2022-08-12T11:45:16.556Z,41.50
2022-08-12T11:47:45.923Z,42.00
2022-08-12T11:50:19.297Z,42.50
2022-08-12T11:52:55.333Z,43.10
2022-08-12T11:55:29.804Z,43.50
2022-08-12T11:58:17.241Z,43.70
2022-08-12T12:03:44.176Z,44.50
2022-08-12T12:06:16.864Z,44.80
2022-08-12T12:08:50.856Z,45.10
2022-08-12T12:11:21.841Z,45.50
2022-08-12T12:14:06.274Z,45.80
2022-08-12T12:16:40.012Z,45.90
2022-08-12T12:19:10.694Z,45.60
2022-08-12T12:21:48.017Z,45.50
2022-08-12T12:24:21.463Z,45.70
2022-08-12T12:26:59.565Z,46.10
2022-08-12T12:30:13.889Z,46.40
2022-08-12T12:32:28.955Z,46.60
2022-08-12T12:35:44.402Z,46.50
2022-08-12T12:38:05.133Z,46.60
2022-08-12T12:40:43.776Z,46.70
2022-08-12T12:43:14.693Z,46.90
2022-08-12T12:45:46.334Z,47.10
2022-08-12T12:48:17.369Z,47.30
2022-08-12T12:50:51.686Z,47.50
2022-08-12T12:54:05.330Z,47.80
2022-08-12T12:56:16.417Z,48.10
2022-08-12T12:58:49.796Z,48.70
2022-08-12T13:01:26.792Z,49.10
2022-08-12T13:04:02.691Z,49.40
2022-08-12T13:06:32.414Z,49.40
2022-08-12T13:09:03.978Z,49.50
2022-08-12T13:11:41.668Z,49.50
2022-08-12T13:14:28.261Z,49.40
2022-08-12T13:17:02.614Z,49.40
2022-08-12T13:19:43.369Z,49.50
2022-08-12T13:22:21.337Z,49.50
2022-08-12T13:24:55.582Z,49.20
2022-08-12T13:27:34.626Z,49.20
2022-08-12T13:30:11.039Z,49.40
2022-08-12T13:32:42.575Z,49.50
2022-08-12T13:35:20.285Z,49.80
2022-08-12T13:38:02.529Z,50.30
2022-08-12T13:40:34.029Z,50.80
2022-08-12T13:43:06.964Z,50.90
2022-08-12T13:45:37.314Z,51.20
2022-08-12T13:48:07.720Z,51.40
2022-08-12T13:50:38.392Z,51.40
2022-08-12T13:53:24.532Z,51.50
2022-08-12T13:56:01.605Z,51.40
2022-08-12T13:58:32.804Z,51.40
2022-08-12T14:01:06.499Z,51.40
2022-08-12T14:03:50.897Z,51.50
2022-08-12T14:06:20.934Z,51.20
2022-08-12T14:08:50.721Z,51.20
2022-08-12T14:11:25.512Z,51.40
2022-08-12T14:14:03.613Z,51.50
2022-08-12T14:16:48.336Z,51.70
2022-08-12T14:19:22.757Z,51.40
2022-08-12T14:22:01.005Z,50.80
2022-08-12T14:24:35.841Z,50.30
2022-08-12T14:27:09.299Z,50.00
2022-08-12T14:30:04.463Z,49.60
2022-08-12T14:32:35.800Z,49.40
2022-08-12T14:35:09.450Z,49.60
2022-08-12T14:37:57.784Z,49.80
2022-08-12T14:40:29.603Z,49.80
2022-08-12T14:42:59.470Z,49.70
2022-08-12T14:45:37.175Z,49.70
2022-08-12T14:48:19.574Z,49.80
2022-08-12T14:52:10.475Z,50.20
2022-08-12T14:55:18.205Z,50.40
2022-08-12T14:57:05.624Z,50.10
2022-08-12T14:59:57.517Z,49.60
2022-08-12T15:02:28.720Z,49.00
2022-08-12T15:05:00.826Z,49.00
2022-08-12T15:07:34.052Z,49.40
2022-08-12T15:10:32.417Z,50.00
2022-08-12T15:13:07.392Z,50.60
2022-08-12T15:15:45.521Z,50.70
2022-08-12T15:18:20.898Z,50.50
2022-08-12T15:20:54.630Z,50.60
2022-08-12T15:23:24.484Z,50.80
2022-08-12T15:26:03.361Z,51.10
2022-08-12T15:28:35.455Z,51.50
2022-08-12T15:31:21.168Z,52.00
2022-08-12T15:33:57.425Z,52.60
2022-08-12T15:36:53.718Z,52.80
2022-08-12T15:39:17.907Z,52.80
2022-08-12T15:41:50.389Z,52.90
2022-08-12T15:44:41.788Z,52.70
2022-08-12T15:47:16.373Z,52.00
2022-08-12T15:49:59.816Z,51.40
2022-08-12T15:52:36.433Z,50.60
2022-08-12T15:55:11.683Z,49.40
2022-08-12T15:57:50.474Z,48.10
2022-08-12T16:00:33.366Z,47.20
2022-08-12T16:03:05.431Z,47.10
2022-08-12T16:06:11.925Z,47.40
2022-08-12T16:08:28.011Z,48.00
2022-08-12T16:10:57.931Z,48.90
2022-08-12T16:13:34.620Z,49.50
2022-08-12T16:16:22.822Z,50.00
2022-08-12T16:19:02.078Z,50.40
2022-08-12T16:21:51.229Z,50.60
2022-08-12T16:24:23.607Z,50.80
2022-08-12T16:26:54.185Z,50.80
2022-08-12T16:29:52.430Z,50.80
2022-08-12T16:32:31.843Z,50.80
2022-08-12T16:35:01.612Z,50.70
2022-08-12T16:38:25.039Z,50.60
2022-08-12T16:40:25.777Z,50.70
2022-08-12T16:43:04.858Z,50.70
2022-08-12T16:46:05.428Z,50.50
2022-08-12T16:48:39.015Z,50.20
2022-08-12T16:51:10.917Z,50.00
2022-08-12T16:53:45.158Z,49.60
2022-08-12T16:56:18.108Z,49.30
2022-08-12T16:58:48.658Z,49.10
2022-08-12T17:01:21.748Z,49.10
2022-08-12T17:04:08.221Z,49.00
2022-08-12T17:06:44.050Z,48.90
2022-08-12T17:09:17.913Z,48.80
2022-08-12T17:11:50.832Z,48.60
2022-08-12T17:14:24.747Z,48.30
2022-08-12T17:16:56.051Z,48.10
2022-08-12T17:20:35.364Z,47.80
2022-08-12T17:22:22.106Z,47.50
2022-08-12T17:24:55.615Z,47.20
2022-08-12T17:27:30.928Z,47.00
2022-08-12T17:30:08.616Z,46.80
2022-08-12T17:32:44.396Z,46.70
2022-08-12T17:35:37.029Z,46.50
2022-08-12T17:38:11.929Z,46.30
2022-08-12T17:40:46.896Z,46.10
2022-08-12T17:43:54.879Z,45.80
2022-08-12T17:46:12.791Z,45.70
2022-08-12T17:48:54.926Z,45.30
2022-08-12T17:51:31.417Z,45.00
2022-08-12T17:54:10.906Z,44.60
2022-08-12T17:56:43.673Z,44.30
2022-08-12T17:59:14.821Z,43.80
2022-08-12T18:02:08.420Z,43.40
2022-08-12T18:04:37.851Z,42.90
2022-08-12T18:07:26.438Z,42.40
2022-08-12T18:09:58.300Z,41.80
2022-08-12T18:12:40.161Z,41.30
2022-08-12T18:15:26.799Z,40.80
2022-08-12T18:18:16.539Z,40.30
2022-08-12T18:20:46.582Z,39.80
2022-08-12T18:23:15.177Z,39.00
2022-08-12T18:26:15.416Z,38.10
2022-08-12T18:28:48.195Z,37.20
2022-08-12T18:31:44.505Z,36.20
2022-08-12T18:34:20.627Z,35.40
2022-08-12T18:36:54.075Z,34.40
2022-08-12T18:39:24.018Z,33.70
2022-08-12T18:41:52.680Z,33.00
2022-08-12T18:44:25.648Z,32.40
2022-08-12T18:46:56.171Z,31.90
2022-08-12T18:49:31.923Z,31.40
2022-08-12T18:52:04.752Z,31.00
2022-08-12T18:54:36.371Z,30.60
2022-08-12T18:57:16.476Z,30.20
2022-08-12T19:00:01.851Z,29.90
2022-08-12T19:02:36.321Z,29.50
2022-08-12T19:05:11.141Z,29.30
2022-08-12T19:07:58.124Z,29.00
2022-08-12T19:10:33.219Z,28.80
2022-08-12T19:13:24.744Z,28.60
2022-08-12T19:15:57.993Z,28.40
2022-08-12T19:18:31.309Z,28.20
2022-08-12T19:21:06.432Z,28.10
2022-08-12T19:23:35.927Z,27.90
2022-08-12T19:26:05.350Z,27.70
2022-08-12T19:28:39.618Z,27.50
2022-08-12T19:31:55.960Z,27.40
2022-08-12T19:37:26.659Z,27.10
2022-08-12T19:40:08.830Z,26.90
2022-08-12T19:42:57.391Z,26.80
2022-08-12T19:45:43.653Z,26.60
2022-08-12T19:48:18.007Z,26.50
2022-08-12T19:50:52.427Z,26.40
2022-08-12T19:53:22.770Z,26.20
2022-08-12T19:55:53.827Z,26.10
2022-08-12T19:58:24.152Z,26.00
2022-08-12T20:00:54.735Z,25.90
2022-08-12T20:03:39.561Z,25.80
2022-08-12T20:06:14.115Z,25.70
2022-08-12T20:08:49.206Z,25.60
2022-08-12T20:12:12.014Z,25.50
2022-08-12T20:14:18.129Z,25.40
2022-08-12T20:16:51.901Z,25.30
2022-08-12T20:19:53.248Z,25.20
2022-08-12T20:22:24.793Z,25.10
2022-08-12T20:25:01.314Z,25.10
2022-08-12T20:28:05.372Z,24.90
2022-08-12T20:30:37.609Z,24.80
2022-08-12T20:33:17.585Z,24.70
2022-08-12T20:36:13.394Z,24.50
2022-08-12T20:38:46.688Z,24.50
2022-08-12T20:41:16.267Z,24.40
2022-08-12T20:43:49.580Z,24.30
2022-08-12T20:46:19.909Z,24.30
2022-08-12T20:48:55.071Z,24.20
2022-08-12T20:51:55.273Z,24.10
2022-08-12T20:54:19.619Z,24.10
2022-08-12T20:56:49.548Z,23.90
2022-08-12T20:59:21.446Z,23.80
2022-08-12T21:01:53.954Z,23.70
2022-08-12T21:04:40.412Z,23.70
2022-08-12T21:07:14.359Z,23.60
2022-08-12T21:09:47.686Z,23.50
2022-08-12T21:12:30.962Z,23.50
2022-08-12T21:15:22.951Z,23.40
2022-08-12T21:18:08.733Z,23.30
2022-08-12T21:20:42.280Z,23.20
2022-08-12T21:23:13.854Z,23.10
2022-08-12T21:25:45.842Z,23.00
2022-08-12T21:28:15.753Z,23.00
2022-08-12T21:31:11.135Z,22.90
2022-08-12T21:33:58.534Z,22.80
2022-08-12T21:36:22.798Z,22.70
2022-08-12T21:39:20.411Z,22.60
2022-08-12T21:41:53.165Z,22.50
2022-08-12T21:45:44.491Z,22.40
2022-08-12T21:47:20.049Z,22.30
2022-08-12T21:50:03.741Z,22.20
2022-08-12T21:52:37.367Z,22.10
2022-08-12T21:55:19.325Z,22.00
2022-08-12T21:57:54.920Z,22.00
2022-08-12T22:00:36.819Z,21.90
2022-08-12T22:04:04.397Z,21.80
2022-08-12T22:06:31.783Z,21.80
2022-08-12T22:09:15.461Z,21.70
2022-08-12T22:11:56.491Z,21.70
2022-08-12T22:14:30.089Z,21.60
2022-08-12T22:17:01.309Z,21.50
2022-08-12T22:19:33.654Z,21.50
2022-08-12T22:22:05.468Z,21.40
2022-08-12T22:24:34.428Z,21.30
2022-08-12T22:27:18.153Z,21.20
2022-08-12T22:30:16.096Z,21.20
2022-08-12T22:32:50.482Z,21.00
2022-08-12T22:35:56.131Z,20.90
2022-08-12T22:38:29.350Z,20.90
2022-08-12T22:41:00.754Z,20.70
2022-08-12T22:43:59.099Z,20.70
2022-08-12T22:46:53.198Z,20.60
2022-08-12T22:49:36.527Z,20.50
2022-08-12T22:52:12.925Z,20.50
2022-08-12T22:54:58.034Z,20.40
2022-08-12T22:57:53.330Z,20.40
2022-08-12T23:00:23.512Z,20.40
2022-08-12T23:03:00.797Z,20.40
2022-08-12T23:05:57.844Z,20.40
2022-08-12T23:08:23.386Z,20.50
2022-08-12T23:10:59.175Z,20.50
2022-08-12T23:13:45.672Z,20.50
2022-08-12T23:16:28.103Z,20.50
2022-08-12T23:19:01.413Z,20.50
2022-08-12T23:22:03.567Z,20.50
2022-08-12T23:24:30.135Z,20.40
2022-08-12T23:27:16.628Z,20.40
2022-08-12T23:30:17.823Z,20.30
2022-08-12T23:32:37.487Z,20.30
2022-08-12T23:35:09.097Z,20.20
2022-08-12T23:37:53.940Z,20.20
2022-08-12T23:40:25.770Z,20.20
2022-08-12T23:42:55.290Z,20.10
2022-08-12T23:45:31.168Z,20.10
2022-08-12T23:48:01.286Z,20.10
2022-08-12T23:50:33.896Z,20.00
2022-08-12T23:53:06.435Z,20.00
2022-08-12T23:55:45.883Z,19.90
2022-08-12T23:58:20.749Z,19.90
